SBI7520 UTAA-LTFG
Flight info
| Callsign | SBI7520 |
|---|---|
| Flight time | N/A |
| Altitude | 36000 |
| Route | UTAA N0440F360 MAM29D MAMED B449 DUKAN N449 INDUR UN161 ERZ UL615 SIV UA285 MUT UT339 ELROP ELRO1D ROKDU BEPTO EVBUM MA08 RW08 LTFG |
| Aircraft | B738/M-SDGIWZ/S |
Departure
| Time | 2026-04-26 12:19 |
|---|---|
| Airport | Ashgabat International Airport (UTAA) |
Arrival
| Time | N/A |
|---|---|
| Airport | Gazipaşa-Alanya Airport (LTFG) |
| Time | Latitude | Longitude | Altitude | Speed | Heading |
|---|---|---|---|---|---|
| 2026-04-26 11:26 | 37.96722 | 58.37336 | 699 ft | 0 kts | 128° |
| 2026-04-26 12:14 | 37.96723 | 58.37334 | 699 ft | 0 kts | 128° |
| 2026-04-26 12:14 | 37.96725 | 58.37331 | 699 ft | 0 kts | 128° |
| 2026-04-26 12:15 | 37.96734 | 58.37316 | 699 ft | 3 kts | 128° |
| 2026-04-26 12:15 | 37.96753 | 58.37288 | 699 ft | 4 kts | 142° |
| 2026-04-26 12:15 | 37.96773 | 58.37284 | 699 ft | 1 kts | 207° |
| 2026-04-26 12:15 | 37.96768 | 58.37278 | 699 ft | 3 kts | 223° |
| 2026-04-26 12:16 | 37.96740 | 58.37246 | 699 ft | 7 kts | 221° |
| 2026-04-26 12:16 | 37.96692 | 58.37247 | 699 ft | 10 kts | 133° |
| 2026-04-26 12:16 | 37.96635 | 58.37336 | 699 ft | 15 kts | 130° |
| 2026-04-26 12:16 | 37.96664 | 58.37439 | 699 ft | 16 kts | 37° |
| 2026-04-26 12:17 | 37.96759 | 58.37532 | 699 ft | 17 kts | 24° |
| 2026-04-26 12:17 | 37.96879 | 58.37501 | 699 ft | 19 kts | 341° |
| 2026-04-26 12:17 | 37.97020 | 58.37443 | 699 ft | 23 kts | 343° |
| 2026-04-26 12:17 | 37.97165 | 58.37325 | 699 ft | 26 kts | 327° |
| 2026-04-26 12:18 | 37.97301 | 58.37319 | 699 ft | 12 kts | 358° |
| 2026-04-26 12:18 | 37.97361 | 58.37244 | 699 ft | 22 kts | 301° |
| 2026-04-26 12:18 | 37.97576 | 58.36758 | 699 ft | 98 kts | 298° |
| 2026-04-26 12:18 | 37.98209 | 58.35346 | 700 ft | 176 kts | 298° |
| 2026-04-26 12:19 | 37.98656 | 58.34364 | 764 ft | 202 kts | 296° |
| 2026-04-26 12:19 | 37.99403 | 58.32728 | 1076 ft | 222 kts | 297° |
| 2026-04-26 12:19 | 38.00127 | 58.31129 | 1714 ft | 203 kts | 294° |
| 2026-04-26 12:19 | 38.01013 | 58.28994 | 1980 ft | 216 kts | 295° |
| 2026-04-26 12:20 | 38.01506 | 58.27855 | 2050 ft | 228 kts | 295° |
| 2026-04-26 12:20 | 38.02367 | 58.26088 | 2201 ft | 245 kts | 306° |
| 2026-04-26 12:20 | 38.03615 | 58.24544 | 2648 ft | 261 kts | 325° |
| 2026-04-26 12:20 | 38.05170 | 58.23316 | 3404 ft | 269 kts | 324° |
| 2026-04-26 12:21 | 38.06687 | 58.21935 | 4150 ft | 275 kts | 321° |
| 2026-04-26 12:21 | 38.08201 | 58.20465 | 4986 ft | 278 kts | 320° |
| 2026-04-26 12:21 | 38.09727 | 58.18957 | 5829 ft | 281 kts | 319° |
| 2026-04-26 12:21 | 38.11260 | 58.17424 | 6682 ft | 282 kts | 319° |
| 2026-04-26 12:22 | 38.12784 | 58.15890 | 7505 ft | 284 kts | 319° |
| 2026-04-26 12:22 | 38.14335 | 58.14326 | 8314 ft | 286 kts | 319° |
| 2026-04-26 12:22 | 38.15889 | 58.12753 | 9010 ft | 290 kts | 319° |
| 2026-04-26 12:22 | 38.17464 | 58.11160 | 9702 ft | 293 kts | 319° |
| 2026-04-26 12:23 | 38.19065 | 58.09546 | 10384 ft | 297 kts | 319° |
| 2026-04-26 12:23 | 38.20723 | 58.07869 | 10525 ft | 320 kts | 319° |
| 2026-04-26 12:23 | 38.22527 | 58.06049 | 10723 ft | 339 kts | 319° |
| 2026-04-26 12:23 | 38.24389 | 58.04177 | 11086 ft | 350 kts | 319° |
| 2026-04-26 12:24 | 38.26311 | 58.02243 | 11730 ft | 353 kts | 319° |
| 2026-04-26 12:24 | 38.28232 | 58.00308 | 12276 ft | 357 kts | 319° |
| 2026-04-26 12:24 | 38.30171 | 57.98351 | 12884 ft | 359 kts | 319° |
| 2026-04-26 12:25 | 38.34110 | 57.94375 | 14005 ft | 364 kts | 319° |
| 2026-04-26 12:25 | 38.36098 | 57.92368 | 14541 ft | 367 kts | 319° |
| 2026-04-26 12:25 | 38.38092 | 57.90351 | 15061 ft | 369 kts | 319° |
| 2026-04-26 12:25 | 38.40107 | 57.88312 | 15571 ft | 371 kts | 319° |
| 2026-04-26 12:26 | 38.42130 | 57.86268 | 16056 ft | 374 kts | 319° |
| 2026-04-26 12:26 | 38.44156 | 57.84222 | 16535 ft | 376 kts | 319° |
| 2026-04-26 12:26 | 38.46220 | 57.82138 | 16993 ft | 378 kts | 319° |
| 2026-04-26 12:26 | 38.48257 | 57.80081 | 17441 ft | 380 kts | 319° |
| 2026-04-26 12:27 | 38.50330 | 57.77989 | 17872 ft | 382 kts | 319° |
| 2026-04-26 12:27 | 38.52434 | 57.75865 | 18304 ft | 384 kts | 319° |
| 2026-04-26 12:27 | 38.54531 | 57.73749 | 18714 ft | 386 kts | 319° |
| 2026-04-26 12:27 | 38.57334 | 57.70922 | 19246 ft | 389 kts | 319° |
| 2026-04-26 12:28 | 38.58741 | 57.69504 | 19503 ft | 390 kts | 318° |
| 2026-04-26 12:28 | 38.60657 | 57.67089 | 19806 ft | 389 kts | 304° |
| 2026-04-26 12:28 | 38.62060 | 57.64163 | 20317 ft | 384 kts | 297° |
| 2026-04-26 12:28 | 38.63229 | 57.61115 | 20503 ft | 389 kts | 290° |
| 2026-04-26 12:29 | 38.64156 | 57.57866 | 21019 ft | 385 kts | 288° |
| 2026-04-26 12:29 | 38.65071 | 57.54633 | 21170 ft | 392 kts | 289° |
| 2026-04-26 12:29 | 38.66963 | 57.48144 | 21786 ft | 396 kts | 289° |
| 2026-04-26 12:30 | 38.67912 | 57.44835 | 22205 ft | 394 kts | 289° |
| 2026-04-26 12:30 | 38.68850 | 57.41557 | 22392 ft | 398 kts | 289° |
| 2026-04-26 12:30 | 38.69814 | 57.38184 | 22691 ft | 399 kts | 289° |
| 2026-04-26 12:31 | 38.71706 | 57.31542 | 23237 ft | 402 kts | 288° |
| 2026-04-26 12:31 | 38.72671 | 57.28144 | 23538 ft | 403 kts | 288° |
| 2026-04-26 12:31 | 38.73622 | 57.24788 | 23798 ft | 404 kts | 288° |
| 2026-04-26 12:31 | 38.74578 | 57.21413 | 24051 ft | 405 kts | 288° |
| 2026-04-26 12:32 | 38.75541 | 57.18007 | 24303 ft | 407 kts | 288° |
| 2026-04-26 12:32 | 38.76499 | 57.14612 | 24548 ft | 408 kts | 288° |
| 2026-04-26 12:32 | 38.78428 | 57.07764 | 25036 ft | 410 kts | 288° |
| 2026-04-26 12:33 | 38.79394 | 57.04327 | 25287 ft | 410 kts | 288° |
| 2026-04-26 12:33 | 38.80356 | 57.00901 | 25539 ft | 410 kts | 288° |
| 2026-04-26 12:33 | 38.81319 | 56.97465 | 25724 ft | 412 kts | 288° |
| 2026-04-26 12:33 | 38.82606 | 56.92867 | 26066 ft | 412 kts | 288° |
| 2026-04-26 12:34 | 38.83242 | 56.90590 | 26204 ft | 412 kts | 288° |
| 2026-04-26 12:34 | 38.84210 | 56.87123 | 26407 ft | 413 kts | 288° |
| 2026-04-26 12:34 | 38.85169 | 56.83687 | 26591 ft | 414 kts | 288° |
| 2026-04-26 12:34 | 38.86151 | 56.80169 | 26757 ft | 415 kts | 288° |
| 2026-04-26 12:35 | 38.87119 | 56.76700 | 26924 ft | 414 kts | 288° |
| 2026-04-26 12:35 | 38.88082 | 56.73244 | 27035 ft | 415 kts | 288° |
| 2026-04-26 12:35 | 38.89050 | 56.69766 | 27192 ft | 415 kts | 288° |
| 2026-04-26 12:35 | 38.90013 | 56.66286 | 27302 ft | 416 kts | 288° |
| 2026-04-26 12:36 | 38.90979 | 56.62786 | 27470 ft | 415 kts | 288° |
| 2026-04-26 12:36 | 38.91936 | 56.59313 | 27589 ft | 416 kts | 288° |
| 2026-04-26 12:36 | 38.92903 | 56.55818 | 27696 ft | 417 kts | 288° |
| 2026-04-26 12:36 | 38.93869 | 56.52324 | 27794 ft | 418 kts | 288° |
| 2026-04-26 12:37 | 38.94832 | 56.48822 | 27922 ft | 418 kts | 288° |
| 2026-04-26 12:37 | 38.95802 | 56.45275 | 28081 ft | 418 kts | 287° |
| 2026-04-26 12:37 | 38.96760 | 56.41768 | 28251 ft | 418 kts | 287° |
| 2026-04-26 12:38 | 38.98694 | 56.34712 | 28503 ft | 420 kts | 287° |
| 2026-04-26 12:38 | 38.99660 | 56.31195 | 28711 ft | 419 kts | 287° |
| 2026-04-26 12:38 | 39.00607 | 56.27609 | 28847 ft | 420 kts | 285° |
| 2026-04-26 12:38 | 39.01424 | 56.24020 | 29025 ft | 419 kts | 283° |
| 2026-04-26 12:39 | 39.02202 | 56.20465 | 29152 ft | 420 kts | 284° |
| 2026-04-26 12:39 | 39.03014 | 56.16871 | 29312 ft | 420 kts | 284° |
| 2026-04-26 12:39 | 39.03852 | 56.13239 | 29470 ft | 420 kts | 284° |
| 2026-04-26 12:40 | 39.05493 | 56.06069 | 29695 ft | 422 kts | 284° |
| 2026-04-26 12:40 | 39.06318 | 56.02443 | 29798 ft | 423 kts | 284° |
| 2026-04-26 12:40 | 39.07142 | 55.98811 | 29980 ft | 422 kts | 284° |
| 2026-04-26 12:40 | 39.07968 | 55.95179 | 30231 ft | 419 kts | 284° |
| 2026-04-26 12:41 | 39.08773 | 55.91651 | 30486 ft | 416 kts | 284° |
| 2026-04-26 12:41 | 39.09586 | 55.88081 | 30682 ft | 415 kts | 284° |
| 2026-04-26 12:41 | 39.10396 | 55.84504 | 30771 ft | 416 kts | 284° |
| 2026-04-26 12:41 | 39.11470 | 55.79738 | 30913 ft | 417 kts | 284° |
| 2026-04-26 12:42 | 39.12277 | 55.76165 | 31034 ft | 417 kts | 284° |
| 2026-04-26 12:42 | 39.13620 | 55.70202 | 31219 ft | 417 kts | 284° |
| 2026-04-26 12:42 | 39.14420 | 55.66627 | 31335 ft | 417 kts | 284° |
| 2026-04-26 12:43 | 39.15229 | 55.63026 | 31469 ft | 416 kts | 284° |
| 2026-04-26 12:43 | 39.16027 | 55.59469 | 31583 ft | 416 kts | 284° |
| 2026-04-26 12:43 | 39.16820 | 55.55916 | 31735 ft | 415 kts | 284° |
| 2026-04-26 12:43 | 39.17621 | 55.52330 | 31917 ft | 413 kts | 284° |
| 2026-04-26 12:44 | 39.18409 | 55.48790 | 32025 ft | 413 kts | 284° |
| 2026-04-26 12:44 | 39.19193 | 55.45251 | 32145 ft | 413 kts | 284° |
| 2026-04-26 12:44 | 39.19972 | 55.41722 | 32257 ft | 412 kts | 284° |
| 2026-04-26 12:45 | 39.21547 | 55.34618 | 32461 ft | 412 kts | 283° |
| 2026-04-26 12:45 | 39.22338 | 55.31045 | 32587 ft | 411 kts | 283° |
| 2026-04-26 12:45 | 39.23120 | 55.27509 | 32717 ft | 411 kts | 284° |
| 2026-04-26 12:45 | 39.23897 | 55.23982 | 32822 ft | 411 kts | 283° |
| 2026-04-26 12:46 | 39.24666 | 55.20438 | 32919 ft | 411 kts | 283° |
| 2026-04-26 12:46 | 39.25423 | 55.16902 | 33072 ft | 410 kts | 283° |
| 2026-04-26 12:46 | 39.26178 | 55.13370 | 33198 ft | 409 kts | 283° |
| 2026-04-26 12:47 | 39.27697 | 55.06328 | 33374 ft | 409 kts | 283° |
| 2026-04-26 12:47 | 39.29234 | 54.99262 | 33580 ft | 409 kts | 283° |
| 2026-04-26 12:48 | 39.30758 | 54.92207 | 33754 ft | 409 kts | 283° |
| 2026-04-26 12:48 | 39.32272 | 54.85157 | 33928 ft | 409 kts | 283° |
| 2026-04-26 12:49 | 39.33817 | 54.78125 | 34095 ft | 408 kts | 284° |
| 2026-04-26 12:49 | 39.35349 | 54.71109 | 34279 ft | 408 kts | 283° |
| 2026-04-26 12:50 | 39.37138 | 54.62866 | 34479 ft | 407 kts | 284° |
| 2026-04-26 12:50 | 39.38389 | 54.57015 | 34609 ft | 406 kts | 283° |
| 2026-04-26 12:51 | 39.39873 | 54.50015 | 34780 ft | 405 kts | 283° |
| 2026-04-26 12:51 | 39.41357 | 54.43015 | 34956 ft | 404 kts | 283° |
| 2026-04-26 12:52 | 39.43070 | 54.34881 | 35154 ft | 402 kts | 283° |
| 2026-04-26 12:52 | 39.44292 | 54.29082 | 35304 ft | 402 kts | 283° |
| 2026-04-26 12:53 | 39.46007 | 54.20970 | 35487 ft | 401 kts | 283° |
| 2026-04-26 12:53 | 39.47223 | 54.15157 | 35643 ft | 400 kts | 283° |
| 2026-04-26 12:54 | 39.48675 | 54.08218 | 35816 ft | 399 kts | 283° |
| 2026-04-26 12:54 | 39.50106 | 54.01305 | 35974 ft | 398 kts | 282° |
| 2026-04-26 12:55 | 39.51507 | 53.94414 | 36125 ft | 398 kts | 282° |
| 2026-04-26 12:55 | 39.52907 | 53.87505 | 36129 ft | 400 kts | 282° |
| 2026-04-26 12:56 | 39.54323 | 53.80512 | 36127 ft | 401 kts | 282° |
| 2026-04-26 12:56 | 39.55738 | 53.73524 | 36128 ft | 400 kts | 283° |
| 2026-04-26 12:57 | 39.57146 | 53.66580 | 36128 ft | 400 kts | 283° |
| 2026-04-26 12:57 | 39.58772 | 53.58474 | 36126 ft | 400 kts | 282° |
| 2026-04-26 12:58 | 39.60592 | 53.49206 | 36128 ft | 400 kts | 282° |
| 2026-04-26 12:58 | 39.61979 | 53.42198 | 36128 ft | 400 kts | 282° |
| 2026-04-26 12:59 | 39.63381 | 53.35226 | 36127 ft | 400 kts | 283° |
| 2026-04-26 12:59 | 39.64775 | 53.28265 | 36127 ft | 399 kts | 282° |
| 2026-04-26 13:00 | 39.66147 | 53.21340 | 36128 ft | 400 kts | 282° |
| 2026-04-26 13:00 | 39.67533 | 53.14352 | 36128 ft | 400 kts | 282° |
| 2026-04-26 13:01 | 39.68904 | 53.07402 | 36128 ft | 399 kts | 282° |
| 2026-04-26 13:01 | 39.70498 | 52.99241 | 36128 ft | 399 kts | 282° |
| 2026-04-26 13:02 | 39.71618 | 52.93439 | 36127 ft | 401 kts | 282° |
| 2026-04-26 13:02 | 39.73212 | 52.85238 | 36130 ft | 404 kts | 282° |
| 2026-04-26 13:03 | 39.74377 | 52.79333 | 36127 ft | 404 kts | 282° |
| 2026-04-26 13:03 | 39.75763 | 52.72299 | 36128 ft | 404 kts | 282° |
| 2026-04-26 13:04 | 39.77152 | 52.65236 | 36127 ft | 404 kts | 282° |
| 2026-04-26 13:04 | 39.78535 | 52.58213 | 36127 ft | 404 kts | 282° |
| 2026-04-26 13:05 | 39.79918 | 52.51136 | 36128 ft | 404 kts | 282° |
| 2026-04-26 13:05 | 39.81294 | 52.44093 | 36127 ft | 403 kts | 282° |
| 2026-04-26 13:06 | 39.82663 | 52.37015 | 36129 ft | 403 kts | 282° |
| 2026-04-26 13:06 | 39.84025 | 52.29977 | 36128 ft | 404 kts | 282° |
| 2026-04-26 13:07 | 39.85622 | 52.21748 | 36128 ft | 403 kts | 282° |
| 2026-04-26 13:07 | 39.86733 | 52.15830 | 36129 ft | 403 kts | 281° |
| 2026-04-26 13:08 | 39.88055 | 52.08739 | 36070 ft | 406 kts | 282° |
| 2026-04-26 13:08 | 39.89414 | 52.01692 | 36073 ft | 403 kts | 282° |
| 2026-04-26 13:09 | 39.91016 | 51.93444 | 36075 ft | 404 kts | 282° |
| 2026-04-26 13:09 | 39.92346 | 51.86361 | 36072 ft | 405 kts | 281° |
| 2026-04-26 13:10 | 39.93443 | 51.80430 | 36074 ft | 403 kts | 282° |
| 2026-04-26 13:10 | 39.94977 | 51.72189 | 36073 ft | 403 kts | 282° |
| 2026-04-26 13:11 | 39.96082 | 51.66280 | 36073 ft | 404 kts | 282° |
| 2026-04-26 13:11 | 39.97415 | 51.59145 | 36074 ft | 404 kts | 282° |
| 2026-04-26 13:12 | 39.98730 | 51.52056 | 36072 ft | 402 kts | 282° |
| 2026-04-26 13:12 | 39.99855 | 51.43752 | 36074 ft | 402 kts | 276° |
| 2026-04-26 13:13 | 40.00456 | 51.37710 | 36074 ft | 404 kts | 277° |
| 2026-04-26 13:13 | 40.01259 | 51.30514 | 36074 ft | 403 kts | 277° |
| 2026-04-26 13:14 | 40.02032 | 51.23293 | 36073 ft | 400 kts | 276° |
| 2026-04-26 13:14 | 40.02739 | 51.16121 | 36075 ft | 402 kts | 276° |
| 2026-04-26 13:15 | 40.03485 | 51.08897 | 36073 ft | 402 kts | 276° |
| 2026-04-26 13:15 | 40.04218 | 51.01710 | 36074 ft | 398 kts | 276° |
| 2026-04-26 13:16 | 40.04946 | 50.94613 | 36072 ft | 393 kts | 276° |
| 2026-04-26 13:16 | 40.05677 | 50.87563 | 36075 ft | 392 kts | 276° |
| 2026-04-26 13:17 | 40.06737 | 50.77016 | 36076 ft | 393 kts | 277° |
| 2026-04-26 13:18 | 40.08024 | 50.65299 | 36073 ft | 393 kts | 276° |
| 2026-04-26 13:19 | 40.08886 | 50.55860 | 36071 ft | 392 kts | 276° |
| 2026-04-26 13:19 | 40.09611 | 50.48805 | 36074 ft | 394 kts | 277° |
| 2026-04-26 13:20 | 40.10368 | 50.41743 | 36074 ft | 393 kts | 277° |
| 2026-04-26 13:20 | 40.11114 | 50.34685 | 36075 ft | 393 kts | 276° |
| 2026-04-26 13:21 | 40.11825 | 50.27637 | 36073 ft | 392 kts | 277° |
| 2026-04-26 13:21 | 40.12549 | 50.20564 | 36073 ft | 393 kts | 276° |
| 2026-04-26 13:22 | 40.13229 | 50.13490 | 36074 ft | 393 kts | 275° |
| 2026-04-26 13:22 | 40.13884 | 50.05276 | 36075 ft | 391 kts | 275° |
| 2026-04-26 13:23 | 40.14532 | 49.98220 | 36074 ft | 392 kts | 276° |
| 2026-04-26 13:23 | 40.15163 | 49.92313 | 36071 ft | 393 kts | 277° |
| 2026-04-26 13:24 | 40.15873 | 49.85251 | 36074 ft | 391 kts | 276° |
| 2026-04-26 13:24 | 40.16530 | 49.78200 | 36074 ft | 393 kts | 276° |
| 2026-04-26 13:25 | 40.17198 | 49.71159 | 36073 ft | 393 kts | 276° |
| 2026-04-26 13:25 | 40.17811 | 49.64085 | 36073 ft | 391 kts | 275° |
| 2026-04-26 13:26 | 40.18367 | 49.57031 | 36075 ft | 393 kts | 275° |
| 2026-04-26 13:26 | 40.18889 | 49.49929 | 36073 ft | 392 kts | 271° |
| 2026-04-26 13:27 | 40.18842 | 49.42808 | 36073 ft | 393 kts | 269° |
| 2026-04-26 13:27 | 40.18863 | 49.35658 | 36074 ft | 392 kts | 271° |
| 2026-04-26 13:28 | 40.18887 | 49.27427 | 36075 ft | 391 kts | 269° |
| 2026-04-26 13:28 | 40.18821 | 49.21505 | 36071 ft | 392 kts | 269° |
| 2026-04-26 13:29 | 40.18756 | 49.13234 | 36075 ft | 390 kts | 269° |
| 2026-04-26 13:29 | 40.18756 | 49.07320 | 36073 ft | 390 kts | 270° |
| 2026-04-26 13:30 | 40.18811 | 49.00262 | 36074 ft | 387 kts | 270° |
| 2026-04-26 13:30 | 40.18805 | 48.92109 | 36078 ft | 385 kts | 271° |
| 2026-04-26 13:31 | 40.18783 | 48.86288 | 36081 ft | 384 kts | 270° |
| 2026-04-26 13:31 | 40.18668 | 48.79279 | 36092 ft | 386 kts | 269° |
| 2026-04-26 13:32 | 40.18605 | 48.72302 | 36101 ft | 387 kts | 271° |
| 2026-04-26 13:32 | 40.18618 | 48.65300 | 36099 ft | 385 kts | 271° |
| 2026-04-26 13:33 | 40.18582 | 48.57158 | 36103 ft | 386 kts | 270° |
| 2026-04-26 13:33 | 40.18488 | 48.51309 | 36100 ft | 387 kts | 270° |
| 2026-04-26 13:34 | 40.18345 | 48.44295 | 36101 ft | 388 kts | 269° |
| 2026-04-26 13:34 | 40.18249 | 48.36066 | 36100 ft | 386 kts | 270° |
| 2026-04-26 13:35 | 40.18175 | 48.29072 | 36102 ft | 387 kts | 270° |
| 2026-04-26 13:35 | 40.18121 | 48.23210 | 36101 ft | 386 kts | 269° |
| 2026-04-26 13:36 | 40.18019 | 48.16219 | 36101 ft | 385 kts | 269° |
| 2026-04-26 13:36 | 40.17936 | 48.09223 | 36103 ft | 386 kts | 270° |
| 2026-04-26 13:37 | 40.17833 | 48.01055 | 36099 ft | 387 kts | 269° |
| 2026-04-26 13:37 | 40.17759 | 47.95226 | 36100 ft | 385 kts | 270° |
| 2026-04-26 13:38 | 40.17736 | 47.88254 | 36104 ft | 385 kts | 270° |
| 2026-04-26 13:38 | 40.17695 | 47.81256 | 36099 ft | 385 kts | 270° |
| 2026-04-26 13:39 | 40.17565 | 47.74280 | 36102 ft | 385 kts | 268° |
| 2026-04-26 13:39 | 40.17372 | 47.67268 | 36102 ft | 386 kts | 269° |
| 2026-04-26 13:40 | 40.17241 | 47.60292 | 36099 ft | 385 kts | 269° |
| 2026-04-26 13:40 | 40.17088 | 47.52172 | 36100 ft | 386 kts | 270° |
| 2026-04-26 13:41 | 40.16967 | 47.46320 | 36102 ft | 385 kts | 269° |
| 2026-04-26 13:41 | 40.16825 | 47.39361 | 36101 ft | 384 kts | 270° |
| 2026-04-26 13:42 | 40.16723 | 47.32354 | 36101 ft | 386 kts | 270° |
| 2026-04-26 13:42 | 40.16683 | 47.25398 | 36100 ft | 385 kts | 270° |
| 2026-04-26 13:43 | 40.16614 | 47.18396 | 36103 ft | 387 kts | 269° |
| 2026-04-26 13:43 | 40.16476 | 47.11374 | 36099 ft | 385 kts | 269° |
| 2026-04-26 13:44 | 40.16314 | 47.04404 | 36101 ft | 385 kts | 269° |
| 2026-04-26 13:44 | 40.16150 | 46.96261 | 36101 ft | 387 kts | 268° |
| 2026-04-26 13:45 | 40.16022 | 46.90419 | 36100 ft | 386 kts | 268° |
| 2026-04-26 13:45 | 40.15876 | 46.83405 | 36101 ft | 386 kts | 268° |
| 2026-04-26 13:46 | 40.15697 | 46.76416 | 36101 ft | 388 kts | 267° |
| 2026-04-26 13:46 | 40.15442 | 46.69407 | 36100 ft | 387 kts | 267° |
| 2026-04-26 13:47 | 40.15244 | 46.62392 | 36101 ft | 386 kts | 268° |
| 2026-04-26 13:47 | 40.15058 | 46.55381 | 36101 ft | 387 kts | 268° |
| 2026-04-26 13:48 | 40.14830 | 46.47210 | 36100 ft | 387 kts | 268° |
| 2026-04-26 13:48 | 40.14704 | 46.41358 | 36099 ft | 386 kts | 269° |
| 2026-04-26 13:49 | 40.14564 | 46.33183 | 36101 ft | 387 kts | 267° |
| 2026-04-26 13:49 | 40.14412 | 46.27314 | 36100 ft | 387 kts | 267° |
| 2026-04-26 13:50 | 40.14220 | 46.20328 | 36101 ft | 387 kts | 268° |
| 2026-04-26 13:50 | 40.14022 | 46.13334 | 36101 ft | 386 kts | 267° |
| 2026-04-26 13:51 | 40.13786 | 46.05154 | 36101 ft | 387 kts | 267° |
| 2026-04-26 13:51 | 40.13611 | 45.99337 | 36101 ft | 386 kts | 267° |
| 2026-04-26 13:52 | 40.13431 | 45.92325 | 36101 ft | 388 kts | 269° |
| 2026-04-26 13:52 | 40.13462 | 45.85251 | 36101 ft | 388 kts | 270° |
| 2026-04-26 13:53 | 40.13491 | 45.77088 | 36097 ft | 386 kts | 269° |
| 2026-04-26 13:53 | 40.13499 | 45.71230 | 36093 ft | 387 kts | 269° |
| 2026-04-26 13:54 | 40.13488 | 45.64224 | 36087 ft | 387 kts | 269° |
| 2026-04-26 13:54 | 40.13497 | 45.57224 | 36080 ft | 387 kts | 270° |
| 2026-04-26 13:55 | 40.13482 | 45.47868 | 36053 ft | 387 kts | 270° |
| 2026-04-26 13:56 | 40.13448 | 45.36307 | 36020 ft | 387 kts | 269° |
| 2026-04-26 13:56 | 40.13434 | 45.29276 | 36016 ft | 387 kts | 269° |
| 2026-04-26 13:57 | 40.13402 | 45.22274 | 36018 ft | 387 kts | 269° |
| 2026-04-26 13:57 | 40.13368 | 45.15215 | 36019 ft | 388 kts | 269° |
| 2026-04-26 13:58 | 40.13267 | 45.07026 | 36019 ft | 386 kts | 268° |
| 2026-04-26 13:58 | 40.13148 | 45.00070 | 36019 ft | 386 kts | 268° |
| 2026-04-26 13:59 | 40.13121 | 44.94226 | 36021 ft | 387 kts | 269° |
| 2026-04-26 13:59 | 40.13145 | 44.87221 | 36021 ft | 384 kts | 268° |
| 2026-04-26 14:00 | 40.13122 | 44.72118 | 36023 ft | 387 kts | 266° |